Time;durP1;ratioP1;P1;durP2;ratioP2;P2;SDS_P1;SDS_P2;PMS_P1;PMS_P2;Temp;Humidity;BMP_temperature;BMP_pressure;BME280_temperature;BME280_humidity;BME280_pressure;Samples;Min_cycle;Max_cycle;Signal;HPM_P1;HPM_P2
2024/03/06 06:02:44;;;;;;;;;;;;;;;;;;4969030;28;19930;-48
2024/03/06 06:05:10;;;;;;;;;;;;;;;;;;4987998;28;19917;-48
2024/03/06 06:07:37;;;;;;;;;;;;;;;;;;4992573;28;19932;-51
2024/03/06 06:10:05;;;;;;;;;;;;;;;;;;4992610;28;19941;-48
2024/03/06 06:12:30;;;;;;;;;;;;;;;;;;4989289;28;20003;-50
2024/03/06 06:14:56;;;;;;;;;;;;;;;;;;4988168;28;20371;-48
2024/03/06 06:17:22;;;;;;;;;;;;;;;;;;4992194;28;19909;-49
2024/03/06 06:19:48;;;;;;;;;;;;;;;;;;4980173;28;19914;-50
2024/03/06 06:22:14;;;;;;;;;;;;;;;;;;4984766;28;19914;-49
2024/03/06 06:24:40;;;;;;;;;;;;;;;;;;4987667;28;19957;-51
2024/03/06 06:27:06;;;;;;;;;;;;;;;;;;4992220;28;19983;-49
2024/03/06 06:29:32;;;;;;;;;;;;;;;;;;4992217;28;19918;-48
2024/03/06 06:31:58;;;;;;;;;;;;;;;;;;4973440;28;19914;-51
2024/03/06 06:34:27;;;;;;;;;;;;;;;;;;4990016;28;19910;-49
2024/03/06 06:36:53;;;;;;;;;;;;;;;;;;4992200;28;20364;-49
2024/03/06 06:39:19;;;;;;;;;;;;;;;;;;4991961;28;19910;-51
2024/03/06 06:41:45;;;;;;;;;;;;;;;;;;4992157;28;19933;-49
2024/03/06 06:44:11;;;;;;;;;;;;;;;;;;4992128;28;20045;-51
2024/03/06 06:46:37;;;;;;;;;;;;;;;;;;4989372;28;20323;-51
2024/03/06 06:49:03;;;;;;;;;;;;;;;;;;4991985;28;19924;-50
2024/03/06 06:51:29;;;;;;;;;;;;;;;;;;4992026;28;19916;-47
2024/03/06 06:53:55;;;;;;;;;;;;;;;;;;4991769;28;20032;-51
2024/03/06 06:56:23;;;;;;;;;;;;;;;;;;4990145;28;19914;-51
2024/03/06 06:58:49;;;;;;;;;;;;;;;;;;4991781;28;20344;-48
2024/03/06 07:01:18;;;;;;;;;;;;;;;;;;4991795;28;20012;-50
2024/03/06 07:03:44;;;;;;;;;;;;;;;;;;4982436;28;19970;-49
2024/03/06 07:06:10;;;;;;;;;;;;;;;;;;4972898;28;20556;-50
2024/03/06 07:08:37;;;;;;;;;;;;;;;;;;4991539;28;20341;-48
2024/03/06 07:11:03;;;;;;;;;;;;;;;;;;4982637;28;19968;-49
2024/03/06 07:13:28;;;;;;;;;;;;;;;;;;4972401;28;19910;-47
2024/03/06 07:15:54;;;;;;;;;;;;;;;;;;4972467;28;19937;-50
2024/03/06 07:18:20;;;;;;;;;;;;;;;;;;4971743;28;19918;-51
2024/03/06 07:20:47;;;;;;;;;;;;;;;;;;4983593;28;19954;-46
2024/03/06 07:23:13;;;;;;;;;;;;;;;;;;4972906;28;19914;-46
2024/03/06 07:25:39;;;;;;;;;;;;;;;;;;4975084;28;19918;-46
2024/03/06 07:28:05;;;;;;;;;;;;;;;;;;4975758;28;20029;-46
2024/03/06 07:30:31;;;;;;;;;;;;;;;;;;4975056;28;19914;-45
2024/03/06 07:32:57;;;;;;;;;;;;;;;;;;4963549;28;19914;-47
2024/03/06 07:35:23;;;;;;;;;;;;;;;;;;4991715;28;20303;-47
2024/03/06 07:37:49;;;;;;;;;;;;;;;;;;4980345;28;19910;-46
2024/03/06 07:40:15;;;;;;;;;;;;;;;;;;4975884;28;19917;-46
2024/03/06 07:42:41;;;;;;;;;;;;;;;;;;4975569;28;19914;-47
2024/03/06 07:45:08;;;;;;;;;;;;;;;;;;4957250;28;19918;-46
2024/03/06 07:47:34;;;;;;;;;;;;;;;;;;4994580;28;20391;-46
2024/03/06 07:50:00;;;;;;;;;;;;;;;;;;4990145;28;19926;-46
2024/03/06 07:52:26;;;;;;;;;;;;;;;;;;4975371;28;19953;-46
2024/03/06 07:54:52;;;;;;;;;;;;;;;;;;4974503;28;19939;-46
2024/03/06 07:57:18;;;;;;;;;;;;;;;;;;4991710;28;20276;-48
2024/03/06 07:59:44;;;;;;;;;;;;;;;;;;4995009;28;19918;-46
2024/03/06 08:02:10;;;;;;;;;;;;;;;;;;4977948;28;20307;-46
2024/03/06 08:04:35;;;;;;;;;;;;;;;;;;4973535;28;20419;-46
2024/03/06 08:07:01;;;;;;;;;;;;;;;;;;4974915;28;19945;-49
2024/03/06 08:09:28;;;;;;;;;;;;;;;;;;4986088;28;19920;-48
2024/03/06 08:11:54;;;;;;;;;;;;;;;;;;4977001;28;19910;-49
2024/03/06 08:14:20;;;;;;;;;;;;;;;;;;4978560;28;20284;-51
2024/03/06 08:16:46;;;;;;;;;;;;;;;;;;4975303;28;19910;-49
2024/03/06 08:19:12;;;;;;;;;;;;;;;;;;4976750;28;19914;-49
2024/03/06 08:21:38;;;;;;;;;;;;;;;;;;4979972;28;20308;-49
2024/03/06 08:24:04;;;;;;;;;;;;;;;;;;4970163;28;19922;-51
2024/03/06 08:26:29;;;;;;;;;;;;;;;;;;4971219;28;19988;-51
2024/03/06 08:28:55;;;;;;;;;;;;;;;;;;4972521;28;20005;-46
2024/03/06 08:31:21;;;;;;;;;;;;;;;;;;4972035;28;20300;-49
2024/03/06 08:33:47;;;;;;;;;;;;;;;;;;4973187;28;19910;-50
2024/03/06 08:36:13;;;;;;;;;;;;;;;;;;4973710;28;19997;-46
2024/03/06 08:38:40;;;;;;;;;;;;;;;;;;4972715;28;20339;-47
2024/03/06 08:41:06;;;;;;;;;;;;;;;;;;4977552;28;19914;-47
2024/03/06 08:43:32;;;;;;;;;;;;;;;;;;4993506;28;19910;-46
2024/03/06 08:45:58;;;;;;;;;;;;;;;;;;4993556;28;19936;-48
2024/03/06 08:48:24;;;;;;;;;;;;;;;;;;4978815;28;19921;-46
2024/03/06 08:50:50;;;;;;;;;;;;;;;;;;4974209;28;21745;-50
2024/03/06 08:53:16;;;;;;;;;;;;;;;;;;4993766;28;19917;-50
2024/03/06 08:55:43;;;;;;;;;;;;;;;;;;4993386;28;20364;-50
2024/03/06 08:58:08;;;;;;;;;;;;;;;;;;4993421;28;19948;-50
2024/03/06 09:00:34;;;;;;;;;;;;;;;;;;4993276;28;19956;-51
2024/03/06 09:03:00;;;;;;;;;;;;;;;;;;4992103;28;20292;-48
2024/03/06 09:05:26;;;;;;;;;;;;;;;;;;4993065;28;20055;-50
2024/03/06 09:07:52;;;;;;;;;;;;;;;;;;4991531;28;19941;-47
2024/03/06 09:10:21;;;;;;;;;;;;;;;;;;4971354;28;19981;-51
2024/03/06 09:12:47;;;;;;;;;;;;;;;;;;4962825;28;19915;-46
2024/03/06 09:15:13;;;;;;;;;;;;;;;;;;4973886;28;19918;-47
2024/03/06 09:17:39;;;;;;;;;;;;;;;;;;4973154;28;19910;-50
2024/03/06 09:20:11;;;;;;;;;;;;;;;;;;4973159;28;20304;-47
2024/03/06 09:22:37;;;;;;;;;;;;;;;;;;4973190;28;20364;-50
2024/03/06 09:25:03;;;;;;;;;;;;;;;;;;4967245;28;20012;-46
2024/03/06 09:27:29;;;;;;;;;;;;;;;;;;4966864;28;19921;-46
2024/03/06 09:29:56;;;;;;;;;;;;;;;;;;4971905;28;19910;-45
2024/03/06 09:32:22;;;;;;;;;;;;;;;;;;4972913;28;19914;-47
2024/03/06 09:34:48;;;;;;;;;;;;;;;;;;4976400;28;19910;-48
2024/03/06 09:37:14;;;;;;;;;;;;;;;;;;4973141;28;19917;-48
2024/03/06 09:39:40;;;;;;;;;;;;;;;;;;4972137;28;19910;-44
2024/03/06 09:42:06;;;;;;;;;;;;;;;;;;4972159;28;20406;-47
2024/03/06 09:44:33;;;;;;;;;;;;;;;;;;4971867;28;19918;-48
2024/03/06 09:46:59;;;;;;;;;;;;;;;;;;4986905;28;20335;-49
2024/03/06 09:49:25;;;;;;;;;;;;;;;;;;4987904;28;19922;-48
2024/03/06 09:51:52;;;;;;;;;;;;;;;;;;4973077;28;19911;-47
2024/03/06 09:54:18;;;;;;;;;;;;;;;;;;4973296;28;19910;-48
2024/03/06 09:56:44;;;;;;;;;;;;;;;;;;4971144;28;19960;-48
2024/03/06 09:59:10;;;;;;;;;;;;;;;;;;4975486;28;20033;-47
2024/03/06 10:01:36;;;;;;;;;;;;;;;;;;4990855;28;20012;-49
2024/03/06 10:04:04;;;;;;;;;;;;;;;;;;4979281;28;19915;-47
2024/03/06 10:06:30;;;;;;;;;;;;;;;;;;4971849;28;19978;-48
2024/03/06 10:08:56;;;;;;;;;;;;;;;;;;4971010;28;19911;-48
2024/03/06 10:11:24;;;;;;;;;;;;;;;;;;4971391;28;19918;-49
2024/03/06 10:13:51;;;;;;;;;;;;;;;;;;4971574;28;19910;-48
2024/03/06 10:16:17;;;;;;;;;;;;;;;;;;4971903;28;19910;-48
2024/03/06 10:18:43;;;;;;;;;;;;;;;;;;4971798;28;19969;-46
2024/03/06 10:21:09;;;;;;;;;;;;;;;;;;4970179;28;20364;-45
2024/03/06 10:23:34;;;;;;;;;;;;;;;;;;4969845;28;19910;-49
2024/03/06 10:26:00;;;;;;;;;;;;;;;;;;4970753;28;19980;-47
2024/03/06 10:28:28;;;;;;;;;;;;;;;;;;4967877;28;19920;-49
2024/03/06 10:30:54;;;;;;;;;;;;;;;;;;4971721;28;19914;-45
2024/03/06 10:33:19;;;;;;;;;;;;;;;;;;4971835;28;19978;-48
2024/03/06 10:35:46;;;;;;;;;;;;;;;;;;4971910;28;20406;-48
2024/03/06 10:38:12;;;;;;;;;;;;;;;;;;4971746;28;19910;-49
2024/03/06 10:40:38;;;;;;;;;;;;;;;;;;4971647;28;19953;-47
2024/03/06 10:43:05;;;;;;;;;;;;;;;;;;4971530;28;19933;-48
2024/03/06 10:45:32;;;;;;;;;;;;;;;;;;4971684;28;20291;-49
2024/03/06 10:47:58;;;;;;;;;;;;;;;;;;4971645;28;19957;-44
2024/03/06 10:50:24;;;;;;;;;;;;;;;;;;4971959;28;19976;-48
2024/03/06 10:52:50;;;;;;;;;;;;;;;;;;4971996;28;19917;-48
2024/03/06 10:55:16;;;;;;;;;;;;;;;;;;4971593;28;20001;-47
2024/03/06 10:57:42;;;;;;;;;;;;;;;;;;4971333;28;20418;-48
2024/03/06 11:00:08;;;;;;;;;;;;;;;;;;4987249;28;19917;-49
2024/03/06 11:02:35;;;;;;;;;;;;;;;;;;4995551;28;19945;-48
2024/03/06 11:05:05;;;;;;;;;;;;;;;;;;4990465;28;19925;-45
2024/03/06 11:07:30;;;;;;;;;;;;;;;;;;4974967;28;19914;-48
2024/03/06 11:09:56;;;;;;;;;;;;;;;;;;4975306;28;20269;-46
2024/03/06 11:12:23;;;;;;;;;;;;;;;;;;4975305;28;19910;-49
2024/03/06 11:14:48;;;;;;;;;;;;;;;;;;4973407;28;19977;-45
2024/03/06 11:17:14;;;;;;;;;;;;;;;;;;4974770;28;19910;-49
2024/03/06 11:19:41;;;;;;;;;;;;;;;;;;4975041;28;19910;-50
2024/03/06 11:22:07;;;;;;;;;;;;;;;;;;4973998;28;19917;-48
2024/03/06 11:24:33;;;;;;;;;;;;;;;;;;4975093;28;20171;-49
2024/03/06 11:27:00;;;;;;;;;;;;;;;;;;4973761;28;19914;-49
2024/03/06 11:29:26;;;;;;;;;;;;;;;;;;4972288;28;19918;-49
2024/03/06 11:31:52;;;;;;;;;;;;;;;;;;4974952;28;20316;-45
2024/03/06 11:34:18;;;;;;;;;;;;;;;;;;4974791;28;19910;-49
2024/03/06 11:36:44;;;;;;;;;;;;;;;;;;4974582;28;19953;-45
2024/03/06 11:39:10;;;;;;;;;;;;;;;;;;4967773;28;20008;-49
2024/03/06 11:41:36;;;;;;;;;;;;;;;;;;4977237;28;19953;-47
2024/03/06 11:44:02;;;;;;;;;;;;;;;;;;4973471;28;19916;-50
2024/03/06 11:46:28;;;;;;;;;;;;;;;;;;4974437;28;19918;-47
2024/03/06 11:48:54;;;;;;;;;;;;;;;;;;4973094;28;19938;-48
2024/03/06 11:51:20;;;;;;;;;;;;;;;;;;4971545;28;19914;-49
2024/03/06 11:53:46;;;;;;;;;;;;;;;;;;4974937;28;19921;-47
2024/03/06 11:56:12;;;;;;;;;;;;;;;;;;4976577;28;20303;-47
2024/03/06 11:58:38;;;;;;;;;;;;;;;;;;4972449;28;19914;-51
2024/03/06 12:01:04;;;;;;;;;;;;;;;;;;4968632;28;19918;-49
2024/03/06 12:03:29;;;;;;;;;;;;;;;;;;4992406;28;19934;-51
2024/03/06 12:05:56;;;;;;;;;;;;;;;;;;4986897;28;19921;-47
2024/03/06 12:08:21;;;;;;;;;;;;;;;;;;4971931;28;20025;-46
2024/03/06 12:10:47;;;;;;;;;;;;;;;;;;4971700;28;20010;-51
2024/03/06 12:13:13;;;;;;;;;;;;;;;;;;4974958;28;19910;-48
2024/03/06 12:15:39;;;;;;;;;;;;;;;;;;4971678;28;19929;-46
2024/03/06 12:18:05;;;;;;;;;;;;;;;;;;4972309;28;20364;-51
2024/03/06 12:20:31;;;;;;;;;;;;;;;;;;4974105;28;19914;-51
2024/03/06 12:22:57;;;;;;;;;;;;;;;;;;4974106;28;19961;-50
2024/03/06 12:25:23;;;;;;;;;;;;;;;;;;4971202;28;19969;-47
2024/03/06 12:27:49;;;;;;;;;;;;;;;;;;4973929;28;19914;-47
2024/03/06 12:30:15;;;;;;;;;;;;;;;;;;4981660;28;20012;-47
2024/03/06 12:32:41;;;;;;;;;;;;;;;;;;4972287;28;19918;-48
2024/03/06 12:35:07;;;;;;;;;;;;;;;;;;4961711;28;19914;-47
2024/03/06 12:37:33;;;;;;;;;;;;;;;;;;4973661;28;19917;-46
2024/03/06 12:39:59;;;;;;;;;;;;;;;;;;4973985;28;19921;-47
2024/03/06 12:42:25;;;;;;;;;;;;;;;;;;4974282;28;19952;-47
2024/03/06 12:44:51;;;;;;;;;;;;;;;;;;4972046;28;19930;-49
2024/03/06 12:47:17;;;;;;;;;;;;;;;;;;4973001;28;20392;-46
2024/03/06 12:49:43;;;;;;;;;;;;;;;;;;4972222;28;19914;-49
2024/03/06 12:52:09;;;;;;;;;;;;;;;;;;4972666;28;19973;-48
2024/03/06 12:54:35;;;;;;;;;;;;;;;;;;4972449;28;19957;-51
2024/03/06 12:57:01;;;;;;;;;;;;;;;;;;4978315;28;19914;-50
2024/03/06 12:59:27;;;;;;;;;;;;;;;;;;4993995;28;19917;-49
2024/03/06 13:01:54;;;;;;;;;;;;;;;;;;4993594;28;19921;-47
2024/03/06 13:04:20;;;;;;;;;;;;;;;;;;4981910;28;19910;-50
2024/03/06 13:06:45;;;;;;;;;;;;;;;;;;4973376;28;19921;-48
2024/03/06 13:09:11;;;;;;;;;;;;;;;;;;4973892;28;19914;-46
2024/03/06 13:11:37;;;;;;;;;;;;;;;;;;4970504;28;19949;-46
2024/03/06 13:14:03;;;;;;;;;;;;;;;;;;4973757;28;20284;-46
2024/03/06 13:16:29;;;;;;;;;;;;;;;;;;4974004;28;19911;-46
2024/03/06 13:18:56;;;;;;;;;;;;;;;;;;4973346;28;20400;-47
2024/03/06 13:21:23;;;;;;;;;;;;;;;;;;4973331;28;19910;-50
2024/03/06 13:23:49;;;;;;;;;;;;;;;;;;4973419;28;19914;-51
2024/03/06 13:26:15;;;;;;;;;;;;;;;;;;4972441;28;20273;-51
2024/03/06 13:28:41;;;;;;;;;;;;;;;;;;4970900;28;20352;-49
2024/03/06 13:31:07;;;;;;;;;;;;;;;;;;4971805;28;20311;-49
2024/03/06 13:33:32;;;;;;;;;;;;;;;;;;4990840;28;19910;-47
2024/03/06 13:35:58;;;;;;;;;;;;;;;;;;4991822;28;19910;-49
2024/03/06 13:38:24;;;;;;;;;;;;;;;;;;4991363;28;20346;-49
2024/03/06 13:40:50;;;;;;;;;;;;;;;;;;4991611;28;20570;-48
2024/03/06 13:43:16;;;;;;;;;;;;;;;;;;4991531;28;19913;-48
2024/03/06 13:45:42;;;;;;;;;;;;;;;;;;4984132;28;20016;-49
2024/03/06 13:48:08;;;;;;;;;;;;;;;;;;4980185;28;19930;-47
2024/03/06 13:50:34;;;;;;;;;;;;;;;;;;4973193;28;19945;-51
2024/03/06 13:53:00;;;;;;;;;;;;;;;;;;4971659;28;19921;-50
2024/03/06 13:55:30;;;;;;;;;;;;;;;;;;4973112;28;19910;-51
2024/03/06 13:57:56;;;;;;;;;;;;;;;;;;4971388;28;19962;-51
2024/03/06 14:00:22;;;;;;;;;;;;;;;;;;4973123;28;20004;-49
2024/03/06 14:02:48;;;;;;;;;;;;;;;;;;4973095;28;20405;-50
2024/03/06 14:05:14;;;;;;;;;;;;;;;;;;4972847;28;20612;-48
2024/03/06 14:07:40;;;;;;;;;;;;;;;;;;4971398;28;19937;-50
2024/03/06 14:10:08;;;;;;;;;;;;;;;;;;4971312;28;20300;-46
2024/03/06 14:12:35;;;;;;;;;;;;;;;;;;4972439;28;20319;-46
2024/03/06 14:15:01;;;;;;;;;;;;;;;;;;4972120;28;19914;-46
2024/03/06 14:17:26;;;;;;;;;;;;;;;;;;4972017;28;19919;-46
2024/03/06 14:19:52;;;;;;;;;;;;;;;;;;4971781;28;19910;-46
2024/03/06 14:22:18;;;;;;;;;;;;;;;;;;4971803;28;19910;-47
2024/03/06 14:24:45;;;;;;;;;;;;;;;;;;4954297;28;19914;-46
2024/03/06 14:27:11;;;;;;;;;;;;;;;;;;4991016;28;19913;-46
2024/03/06 14:29:36;;;;;;;;;;;;;;;;;;4991185;28;20031;-46
2024/03/06 14:32:02;;;;;;;;;;;;;;;;;;4989088;28;19921;-46
2024/03/06 14:34:28;;;;;;;;;;;;;;;;;;4996520;28;19925;-45
2024/03/06 14:36:54;;;;;;;;;;;;;;;;;;4992009;28;19920;-47
2024/03/06 14:39:25;;;;;;;;;;;;;;;;;;4978144;28;19910;-46
2024/03/06 14:41:51;;;;;;;;;;;;;;;;;;4978233;28;20296;-45
2024/03/06 14:44:17;;;;;;;;;;;;;;;;;;4977941;28;19911;-46
2024/03/06 14:46:43;;;;;;;;;;;;;;;;;;4978059;28;19973;-46
2024/03/06 14:49:09;;;;;;;;;;;;;;;;;;4977681;28;19914;-46
2024/03/06 14:51:35;;;;;;;;;;;;;;;;;;4978322;28;19916;-46
2024/03/06 14:54:01;;;;;;;;;;;;;;;;;;4992930;28;20548;-46
2024/03/06 14:56:26;;;;;;;;;;;;;;;;;;4997753;28;19918;-47
2024/03/06 14:58:52;;;;;;;;;;;;;;;;;;4997290;28;19910;-47
2024/03/06 15:01:18;;;;;;;;;;;;;;;;;;4983826;28;20029;-46
2024/03/06 15:03:44;;;;;;;;;;;;;;;;;;4977975;28;20380;-47
2024/03/06 15:06:10;;;;;;;;;;;;;;;;;;4978047;28;20021;-46
2024/03/06 15:08:36;;;;;;;;;;;;;;;;;;4978208;28;19910;-46
2024/03/06 15:11:02;;;;;;;;;;;;;;;;;;4982095;28;19914;-47
2024/03/06 15:13:28;;;;;;;;;;;;;;;;;;4996660;28;19952;-47
2024/03/06 15:15:54;;;;;;;;;;;;;;;;;;4997334;28;19953;-47
2024/03/06 15:18:20;;;;;;;;;;;;;;;;;;4986716;28;19918;-46
2024/03/06 15:20:46;;;;;;;;;;;;;;;;;;4976874;28;19910;-46
2024/03/06 15:23:12;;;;;;;;;;;;;;;;;;4977959;28;20367;-51
2024/03/06 15:25:38;;;;;;;;;;;;;;;;;;4977878;28;20013;-48
2024/03/06 15:28:04;;;;;;;;;;;;;;;;;;4978189;28;20007;-48
2024/03/06 15:30:31;;;;;;;;;;;;;;;;;;4978548;28;20412;-49
2024/03/06 15:32:58;;;;;;;;;;;;;;;;;;4987698;28;19914;-48
2024/03/06 15:35:24;;;;;;;;;;;;;;;;;;4997126;28;19910;-47
2024/03/06 15:37:50;;;;;;;;;;;;;;;;;;4997155;28;20264;-51
2024/03/06 15:40:15;;;;;;;;;;;;;;;;;;4997062;28;19914;-51
2024/03/06 15:42:42;;;;;;;;;;;;;;;;;;4997060;28;19910;-48
2024/03/06 15:45:08;;;;;;;;;;;;;;;;;;4995427;28;19914;-48
2024/03/06 15:47:37;;;;;;;;;;;;;;;;;;4992635;28;19917;-48
2024/03/06 15:50:02;;;;;;;;;;;;;;;;;;4993812;28;20387;-48
2024/03/06 15:52:28;;;;;;;;;;;;;;;;;;4988020;28;19929;-47
2024/03/06 15:54:54;;;;;;;;;;;;;;;;;;4974157;28;19933;-47
2024/03/06 15:57:21;;;;;;;;;;;;;;;;;;4974909;28;19910;-48
2024/03/06 15:59:47;;;;;;;;;;;;;;;;;;4974918;28;19916;-50
2024/03/06 16:02:13;;;;;;;;;;;;;;;;;;4975194;28;19918;-47
2024/03/06 16:04:39;;;;;;;;;;;;;;;;;;4991601;28;20384;-50
2024/03/06 16:07:06;;;;;;;;;;;;;;;;;;4991035;28;19914;-50
2024/03/06 16:09:33;;;;;;;;;;;;;;;;;;4993690;28;21376;-52
2024/03/06 16:11:59;;;;;;;;;;;;;;;;;;4994633;28;19909;-50
2024/03/06 16:14:25;;;;;;;;;;;;;;;;;;4989258;28;19922;-49
2024/03/06 16:16:51;;;;;;;;;;;;;;;;;;4994509;28;20351;-50
2024/03/06 16:19:17;;;;;;;;;;;;;;;;;;4994222;28;19952;-49
2024/03/06 16:21:43;;;;;;;;;;;;;;;;;;4993872;28;19964;-51
2024/03/06 16:24:09;;;;;;;;;;;;;;;;;;4993723;28;19933;-46
2024/03/06 16:26:36;;;;;;;;;;;;;;;;;;4993421;28;19914;-47
2024/03/06 16:29:02;;;;;;;;;;;;;;;;;;4993188;28;19920;-47
2024/03/06 16:31:28;;;;;;;;;;;;;;;;;;4993199;28;19909;-46
2024/03/06 16:33:54;;;;;;;;;;;;;;;;;;4993475;28;19935;-49
2024/03/06 16:36:20;;;;;;;;;;;;;;;;;;4993103;28;19977;-47
2024/03/06 16:38:45;;;;;;;;;;;;;;;;;;4993047;28;19914;-48
2024/03/06 16:41:11;;;;;;;;;;;;;;;;;;4993167;28;20012;-49
2024/03/06 16:43:37;;;;;;;;;;;;;;;;;;4993021;28;19932;-47
2024/03/06 16:46:03;;;;;;;;;;;;;;;;;;4992782;28;19921;-50
2024/03/06 16:48:29;;;;;;;;;;;;;;;;;;4993022;28;19909;-51
2024/03/06 16:50:55;;;;;;;;;;;;;;;;;;4992889;28;19914;-46
2024/03/06 16:53:21;;;;;;;;;;;;;;;;;;4993024;28;19909;-47
2024/03/06 16:55:47;;;;;;;;;;;;;;;;;;4992161;28;20338;-45
2024/03/06 16:58:13;;;;;;;;;;;;;;;;;;4975138;28;19932;-45
2024/03/06 17:00:40;;;;;;;;;;;;;;;;;;4992831;28;19917;-44
2024/03/06 17:03:06;;;;;;;;;;;;;;;;;;4992793;28;20338;-47
2024/03/06 17:05:32;;;;;;;;;;;;;;;;;;4992476;28;19961;-48
2024/03/06 17:07:58;;;;;;;;;;;;;;;;;;4992473;28;20402;-46
2024/03/06 17:10:25;;;;;;;;;;;;;;;;;;4992470;28;19957;-46
2024/03/06 17:12:51;;;;;;;;;;;;;;;;;;4992384;28;19917;-47
2024/03/06 17:15:17;;;;;;;;;;;;;;;;;;4992431;28;19909;-46
2024/03/06 17:17:42;;;;;;;;;;;;;;;;;;4992642;28;20315;-48
2024/03/06 17:20:09;;;;;;;;;;;;;;;;;;4992396;28;19913;-47
2024/03/06 17:22:35;;;;;;;;;;;;;;;;;;4992441;28;20379;-44
2024/03/06 17:25:00;;;;;;;;;;;;;;;;;;4992214;28;20060;-47
2024/03/06 17:27:26;;;;;;;;;;;;;;;;;;4992177;28;20402;-45
2024/03/06 17:29:52;;;;;;;;;;;;;;;;;;4992241;28;19917;-48
2024/03/06 17:32:21;;;;;;;;;;;;;;;;;;4992225;28;19933;-46
2024/03/06 17:34:47;;;;;;;;;;;;;;;;;;4992109;28;19916;-47
2024/03/06 17:37:13;;;;;;;;;;;;;;;;;;4992162;28;20000;-48
2024/03/06 17:39:39;;;;;;;;;;;;;;;;;;4992167;28;19910;-47
2024/03/06 17:42:04;;;;;;;;;;;;;;;;;;4980349;28;19914;-46
2024/03/06 17:44:30;;;;;;;;;;;;;;;;;;4977109;28;20574;-48
2024/03/06 17:46:56;;;;;;;;;;;;;;;;;;4971871;28;20009;-48
2024/03/06 17:49:23;;;;;;;;;;;;;;;;;;4972197;28;19942;-48
2024/03/06 17:51:50;;;;;;;;;;;;;;;;;;4971993;28;19961;-48
2024/03/06 17:54:16;;;;;;;;;;;;;;;;;;4966829;28;19914;-45
2024/03/06 17:56:42;;;;;;;;;;;;;;;;;;4974484;28;19914;-45
2024/03/06 17:59:09;;;;;;;;;;;;;;;;;;4969935;28;20583;-45
2024/03/06 18:01:35;;;;;;;;;;;;;;;;;;4970429;28;20546;-48
2024/03/06 18:04:01;;;;;;;;;;;;;;;;;;4971575;28;19957;-46
2024/03/06 18:06:27;;;;;;;;;;;;;;;;;;4969998;28;20008;-45
2024/03/06 18:08:53;;;;;;;;;;;;;;;;;;4959760;28;20005;-48
2024/03/06 18:11:21;;;;;;;;;;;;;;;;;;4970568;28;19937;-46
2024/03/06 18:13:47;;;;;;;;;;;;;;;;;;4972279;28;19918;-45
2024/03/06 18:16:13;;;;;;;;;;;;;;;;;;4979771;28;19910;-49
2024/03/06 18:18:39;;;;;;;;;;;;;;;;;;4991766;28;19992;-48
2024/03/06 18:21:07;;;;;;;;;;;;;;;;;;4972287;28;19918;-47
2024/03/06 18:23:33;;;;;;;;;;;;;;;;;;4970593;28;20065;-46
2024/03/06 18:26:00;;;;;;;;;;;;;;;;;;4970109;28;20021;-48
2024/03/06 18:28:26;;;;;;;;;;;;;;;;;;4970797;28;19924;-46
2024/03/06 18:30:51;;;;;;;;;;;;;;;;;;4970467;28;19918;-46
2024/03/06 18:33:17;;;;;;;;;;;;;;;;;;4982335;28;19914;-44
2024/03/06 18:35:43;;;;;;;;;;;;;;;;;;4973827;28;19916;-45
2024/03/06 18:38:09;;;;;;;;;;;;;;;;;;4967379;28;19950;-47
2024/03/06 18:40:35;;;;;;;;;;;;;;;;;;4963159;28;19921;-46
2024/03/06 18:43:01;;;;;;;;;;;;;;;;;;4969696;28;19921;-47
2024/03/06 18:45:27;;;;;;;;;;;;;;;;;;4968673;28;20380;-46
2024/03/06 18:47:53;;;;;;;;;;;;;;;;;;4968699;28;19914;-46
2024/03/06 18:50:20;;;;;;;;;;;;;;;;;;4967077;28;19914;-45
2024/03/06 18:52:46;;;;;;;;;;;;;;;;;;4968891;28;19914;-46
2024/03/06 18:55:13;;;;;;;;;;;;;;;;;;4963970;28;19914;-47
2024/03/06 18:57:40;;;;;;;;;;;;;;;;;;4966175;28;19914;-44
2024/03/06 19:00:07;;;;;;;;;;;;;;;;;;4968642;28;20001;-43
2024/03/06 19:02:33;;;;;;;;;;;;;;;;;;4967524;28;19918;-43
2024/03/06 19:04:59;;;;;;;;;;;;;;;;;;4966726;28;20276;-44
2024/03/06 19:07:25;;;;;;;;;;;;;;;;;;4963621;28;20413;-45
2024/03/06 19:09:50;;;;;;;;;;;;;;;;;;4965778;28;20384;-46
2024/03/06 19:12:16;;;;;;;;;;;;;;;;;;4964689;28;19922;-48
2024/03/06 19:14:42;;;;;;;;;;;;;;;;;;4965011;28;20381;-46
2024/03/06 19:17:08;;;;;;;;;;;;;;;;;;4966548;28;19918;-46
2024/03/06 19:19:34;;;;;;;;;;;;;;;;;;4951179;28;19918;-47
2024/03/06 19:22:00;;;;;;;;;;;;;;;;;;4970977;28;20503;-48
2024/03/06 19:24:26;;;;;;;;;;;;;;;;;;4968587;28;20178;-47
2024/03/06 19:26:52;;;;;;;;;;;;;;;;;;4972314;28;19925;-50
2024/03/06 19:29:18;;;;;;;;;;;;;;;;;;4969297;28;19914;-48
2024/03/06 19:31:44;;;;;;;;;;;;;;;;;;4970974;28;19914;-47
2024/03/06 19:34:10;;;;;;;;;;;;;;;;;;4968755;28;19914;-51
2024/03/06 19:36:36;;;;;;;;;;;;;;;;;;4961647;28;20432;-49
2024/03/06 19:39:08;;;;;;;;;;;;;;;;;;4954396;28;20376;-48
2024/03/06 19:41:35;;;;;;;;;;;;;;;;;;4971752;28;19918;-47
2024/03/06 19:44:01;;;;;;;;;;;;;;;;;;4955083;28;20392;-51
2024/03/06 19:46:27;;;;;;;;;;;;;;;;;;4972858;28;19918;-50
2024/03/06 19:48:53;;;;;;;;;;;;;;;;;;4973877;28;19910;-49
2024/03/06 19:51:19;;;;;;;;;;;;;;;;;;4972007;28;19969;-49
2024/03/06 19:53:45;;;;;;;;;;;;;;;;;;4973237;28;19915;-47
2024/03/06 19:56:11;;;;;;;;;;;;;;;;;;4970525;28;20301;-51
2024/03/06 19:58:37;;;;;;;;;;;;;;;;;;4973457;28;19935;-46
2024/03/06 20:01:03;;;;;;;;;;;;;;;;;;4973327;28;19918;-47
2024/03/06 20:03:29;;;;;;;;;;;;;;;;;;4971092;28;20400;-50
2024/03/06 20:05:55;;;;;;;;;;;;;;;;;;4961864;28;19933;-47
2024/03/06 20:08:21;;;;;;;;;;;;;;;;;;4971356;28;19914;-50
2024/03/06 20:10:47;;;;;;;;;;;;;;;;;;4955499;28;20451;-50
2024/03/06 20:13:13;;;;;;;;;;;;;;;;;;4972650;28;19918;-47
2024/03/06 20:15:39;;;;;;;;;;;;;;;;;;4971667;28;19929;-48
2024/03/06 20:18:05;;;;;;;;;;;;;;;;;;4952040;28;19941;-47
2024/03/06 20:20:34;;;;;;;;;;;;;;;;;;4953909;28;19936;-51
2024/03/06 20:23:06;;;;;;;;;;;;;;;;;;4970783;28;19914;-47
2024/03/06 20:25:32;;;;;;;;;;;;;;;;;;4969254;28;21244;-47
2024/03/06 20:27:58;;;;;;;;;;;;;;;;;;4972025;28;19920;-48
2024/03/06 20:30:24;;;;;;;;;;;;;;;;;;4969180;28;19929;-50
2024/03/06 20:32:50;;;;;;;;;;;;;;;;;;4969198;28;19996;-46
2024/03/06 20:35:20;;;;;;;;;;;;;;;;;;4971672;28;19915;-50
2024/03/06 20:37:46;;;;;;;;;;;;;;;;;;4972669;28;20388;-51
2024/03/06 20:40:12;;;;;;;;;;;;;;;;;;4954106;28;19914;-49
2024/03/06 20:42:38;;;;;;;;;;;;;;;;;;4968893;28;19914;-50
2024/03/06 20:45:04;;;;;;;;;;;;;;;;;;4966796;28;19924;-50
2024/03/06 20:47:29;;;;;;;;;;;;;;;;;;4970005;28;20303;-48
2024/03/06 20:49:55;;;;;;;;;;;;;;;;;;4970062;28;20308;-47
2024/03/06 20:52:21;;;;;;;;;;;;;;;;;;4967732;28;19937;-49
2024/03/06 20:54:47;;;;;;;;;;;;;;;;;;4952874;28;20000;-50
2024/03/06 20:57:15;;;;;;;;;;;;;;;;;;4969503;28;19929;-49
2024/03/06 20:59:41;;;;;;;;;;;;;;;;;;4973324;28;20383;-49
2024/03/06 21:02:07;;;;;;;;;;;;;;;;;;4974207;28;19922;-48
2024/03/06 21:04:34;;;;;;;;;;;;;;;;;;4952976;28;19976;-51
2024/03/06 21:07:00;;;;;;;;;;;;;;;;;;4952136;28;19914;-50
2024/03/06 21:09:26;;;;;;;;;;;;;;;;;;4968828;28;19918;-48
2024/03/06 21:11:52;;;;;;;;;;;;;;;;;;4969762;28;19937;-49
2024/03/06 21:14:18;;;;;;;;;;;;;;;;;;4954778;28;20380;-50
2024/03/06 21:16:44;;;;;;;;;;;;;;;;;;4972666;28;19915;-49
2024/03/06 21:19:10;;;;;;;;;;;;;;;;;;4971829;28;20436;-49
2024/03/06 21:21:36;;;;;;;;;;;;;;;;;;4971600;28;19965;-50
2024/03/06 21:24:01;;;;;;;;;;;;;;;;;;4953307;28;19920;-49
2024/03/06 21:26:27;;;;;;;;;;;;;;;;;;4969549;28;20068;-46
2024/03/06 21:28:53;;;;;;;;;;;;;;;;;;4969568;28;19977;-49
2024/03/06 21:31:20;;;;;;;;;;;;;;;;;;4972363;28;20001;-46
2024/03/06 21:33:46;;;;;;;;;;;;;;;;;;4953722;28;20354;-48
2024/03/06 21:36:11;;;;;;;;;;;;;;;;;;4971996;28;19918;-49
2024/03/06 21:38:37;;;;;;;;;;;;;;;;;;4972001;28;19957;-47
2024/03/06 21:41:03;;;;;;;;;;;;;;;;;;4972058;28;20002;-51
2024/03/06 21:43:29;;;;;;;;;;;;;;;;;;4971948;28;20352;-46
2024/03/06 21:45:55;;;;;;;;;;;;;;;;;;4970555;28;19956;-48
2024/03/06 21:48:21;;;;;;;;;;;;;;;;;;4976986;28;20201;-48
2024/03/06 21:50:47;;;;;;;;;;;;;;;;;;4974291;28;20295;-46
2024/03/06 21:53:13;;;;;;;;;;;;;;;;;;4990980;28;19914;-47
2024/03/06 21:55:40;;;;;;;;;;;;;;;;;;4991304;28;19972;-51
2024/03/06 21:58:06;;;;;;;;;;;;;;;;;;4990667;28;19910;-48
2024/03/06 22:00:32;;;;;;;;;;;;;;;;;;4991107;28;19947;-50
2024/03/06 22:02:58;;;;;;;;;;;;;;;;;;4983837;28;19946;-49
2024/03/06 22:05:24;;;;;;;;;;;;;;;;;;4970497;28;19936;-46
2024/03/06 22:07:50;;;;;;;;;;;;;;;;;;4971904;28;19965;-50
2024/03/06 22:10:16;;;;;;;;;;;;;;;;;;4971266;28;19910;-47
2024/03/06 22:12:42;;;;;;;;;;;;;;;;;;4971707;28;19910;-49
2024/03/06 22:15:08;;;;;;;;;;;;;;;;;;4971146;28;19914;-49
2024/03/06 22:17:34;;;;;;;;;;;;;;;;;;4972418;28;19913;-50
2024/03/06 22:20:02;;;;;;;;;;;;;;;;;;4990403;28;20304;-49
2024/03/06 22:22:29;;;;;;;;;;;;;;;;;;4990959;28;20396;-47
2024/03/06 22:24:54;;;;;;;;;;;;;;;;;;4987268;28;19992;-46
2024/03/06 22:27:20;;;;;;;;;;;;;;;;;;4975159;28;20384;-46
2024/03/06 22:29:46;;;;;;;;;;;;;;;;;;4970464;28;19910;-47
2024/03/06 22:32:12;;;;;;;;;;;;;;;;;;4969903;28;19997;-48
2024/03/06 22:34:38;;;;;;;;;;;;;;;;;;4953156;28;20285;-46
2024/03/06 22:37:04;;;;;;;;;;;;;;;;;;4970967;28;19917;-46
2024/03/06 22:39:30;;;;;;;;;;;;;;;;;;4971062;28;19910;-48